Global Endeavor — 3EOJ9 — position and weather

sailwx.info

Track history (hours):
 
Tides and Currents Weather Stations Pressure Air Temp Water Temp Dewpoint Dewpoint Depression Visibility Wind Speed Wind Dir Waves Ship Positions

Global Endeavor

Last reported at 2016-Feb-07 16:32 UTC. Time now 2016-Feb-07 17:18 UTC.
Position N 35°55' E 140°40'.

Length 175 m; draft 10.3 m.

Type: Cargo ship. MMSI: 356619000.

Date/timePositionNaut miles runAvg speedWind from/ knotsBaromVisibWave heightAir tempDewpointWater temp
2016-Feb-07 16:32N 35°55' E 140°40'0 0.0
2016-Feb-07 15:32N 35°55' E 140°40'0 0.0
2016-Feb-07 13:20N 35°55' E 140°40'0 0.0
2016-Feb-07 11:14N 35°55' E 140°40'0 0.0
2016-Feb-07 10:32N 35°55' E 140°40'0 0.0
2016-Feb-06 22:26N 35°55' E 140°40'0 0.0
2016-Feb-06 21:23N 35°55' E 140°40'0 0.0
2016-Feb-06 20:29N 35°55' E 140°40'0 0.0
2016-Feb-06 19:29N 35°55' E 140°40'0 0.0
2016-Feb-06 18:23N 35°55' E 140°40'0 0.0
2016-Feb-06 17:11N 35°55' E 140°40'0 0.0
2016-Feb-06 16:23N 35°55' E 140°40'0 0.0
2016-Feb-06 15:23N 35°55' E 140°40'0 0.0
2016-Feb-06 14:29N 35°55' E 140°40'0 0.0
2016-Feb-06 11:17N 35°55' E 140°40'0 0.0
2016-Feb-06 09:29N 35°55' E 140°40'0 0.0
2016-Feb-06 06:29N 35°55' E 140°40'0 0.0
2016-Feb-06 05:32N 35°55' E 140°40'2 1.7
2016-Feb-06 04:33N 35°56' E 140°42'6 5.8
2016-Feb-06 03:32N 35°59' E 140°48'2 0.1
2016-Feb-05 00:09N 35°57' E 140°49'0 0.0
2016-Feb-04 22:27N 35°57' E 140°50'0 0.1
2016-Feb-04 21:33N 35°57' E 140°50'0 0.0
2016-Feb-04 20:09N 35°57' E 140°50'0 0.0
2016-Feb-04 19:33N 35°57' E 140°50'0 0.0
2016-Feb-04 18:33N 35°57' E 140°50'0 0.1
2016-Feb-04 15:27N 35°57' E 140°49'0 0.0
2016-Feb-03 00:08N 35°57' E 140°49'2 3.9
2016-Feb-02 23:32N 35°56' E 140°52'5 0.1
2016-Feb-01 07:11N 35°59' E 140°56'6 0.5
2016-Jan-31 18:18N 35°55' E 140°50'0 0.0
2016-Jan-31 10:12N 35°56' E 140°50'0 0.1
2016-Jan-31 09:33N 35°56' E 140°50'0 0.0
2016-Jan-31 06:18N 35°56' E 140°50'0 0.1
2016-Jan-31 05:24N 35°56' E 140°50'0 0.0
2016-Jan-31 02:16N 35°56' E 140°50'3 3.6
2016-Jan-31 01:30N 35°58' E 140°51'  
Track history (hours):
 
Tides and Currents Weather Stations Pressure Air Temp Water Temp Dewpoint Dewpoint Depression Visibility Wind Speed Wind Dir Waves Ship Positions

Global Endeavor

Last reported at 2016-Feb-07 16:32 UTC. Time now 2016-Feb-07 17:18 UTC.
Position N 35°55' E 140°40'.

Length 175 m; draft 10.3 m.

Type: Cargo ship. MMSI: 356619000.

Date/timePositionNaut miles runAvg speedWind from/ knotsBaromVisibWave heightAir tempDewpointWater temp
2016-Feb-07 16:32N 35°55' E 140°40'0 0.0
2016-Feb-07 15:32N 35°55' E 140°40'0 0.0
2016-Feb-07 13:20N 35°55' E 140°40'0 0.0
2016-Feb-07 11:14N 35°55' E 140°40'0 0.0
2016-Feb-07 10:32N 35°55' E 140°40'0 0.0
2016-Feb-06 22:26N 35°55' E 140°40'0 0.0
2016-Feb-06 21:23N 35°55' E 140°40'0 0.0
2016-Feb-06 20:29N 35°55' E 140°40'0 0.0
2016-Feb-06 19:29N 35°55' E 140°40'0 0.0
2016-Feb-06 18:23N 35°55' E 140°40'0 0.0
2016-Feb-06 17:11N 35°55' E 140°40'0 0.0
2016-Feb-06 16:23N 35°55' E 140°40'0 0.0
2016-Feb-06 15:23N 35°55' E 140°40'0 0.0
2016-Feb-06 14:29N 35°55' E 140°40'0 0.0
2016-Feb-06 11:17N 35°55' E 140°40'0 0.0
2016-Feb-06 09:29N 35°55' E 140°40'0 0.0
2016-Feb-06 06:29N 35°55' E 140°40'0 0.0
2016-Feb-06 05:32N 35°55' E 140°40'2 1.7
2016-Feb-06 04:33N 35°56' E 140°42'6 5.8
2016-Feb-06 03:32N 35°59' E 140°48'2 0.1
2016-Feb-05 00:09N 35°57' E 140°49'0 0.0
2016-Feb-04 22:27N 35°57' E 140°50'0 0.1
2016-Feb-04 21:33N 35°57' E 140°50'0 0.0
2016-Feb-04 20:09N 35°57' E 140°50'0 0.0
2016-Feb-04 19:33N 35°57' E 140°50'0 0.0
2016-Feb-04 18:33N 35°57' E 140°50'0 0.1
2016-Feb-04 15:27N 35°57' E 140°49'0 0.0
2016-Feb-03 00:08N 35°57' E 140°49'2 3.9
2016-Feb-02 23:32N 35°56' E 140°52'5 0.1
2016-Feb-01 07:11N 35°59' E 140°56'6 0.5
2016-Jan-31 18:18N 35°55' E 140°50'0 0.0
2016-Jan-31 10:12N 35°56' E 140°50'0 0.1
2016-Jan-31 09:33N 35°56' E 140°50'0 0.0
2016-Jan-31 06:18N 35°56' E 140°50'0 0.1
2016-Jan-31 05:24N 35°56' E 140°50'0 0.0
2016-Jan-31 02:16N 35°56' E 140°50'3 3.6
2016-Jan-31 01:30N 35°58' E 140°51'  

Dump ship's entire track history